createdAt,value
2023-05-20T00:00:59.223Z,101800.0
2023-05-20T00:02:59.918Z,101800.0
2023-05-20T00:04:59.055Z,101800.0
2023-05-20T00:06:58.610Z,101790.0
2023-05-20T00:08:59.116Z,101800.0
2023-05-20T00:10:58.024Z,101800.0
2023-05-20T00:12:57.740Z,101800.0
2023-05-20T00:14:57.893Z,101800.0
2023-05-20T00:16:57.326Z,101800.0
2023-05-20T00:18:57.039Z,101790.0
2023-05-20T00:20:56.987Z,101800.0
2023-05-20T00:22:56.512Z,101800.0
2023-05-20T00:26:56.068Z,101800.0
2023-05-20T00:28:55.814Z,101800.0
2023-05-20T00:30:55.506Z,101800.0
2023-05-20T00:32:55.466Z,101800.0
2023-05-20T00:34:56.336Z,101800.0
2023-05-20T00:36:55.071Z,101800.0
2023-05-20T00:38:54.597Z,101800.0
2023-05-20T00:40:54.412Z,101790.0
2023-05-20T00:42:54.020Z,101800.0
2023-05-20T00:44:54.911Z,101800.0
2023-05-20T00:46:54.935Z,101800.0
2023-05-20T00:48:53.525Z,101800.0
2023-05-20T00:50:53.103Z,101800.0
2023-05-20T00:52:54.385Z,101800.0
2023-05-20T00:54:52.578Z,101790.0
2023-05-20T00:58:52.534Z,101790.0
2023-05-20T01:00:51.903Z,101790.0
2023-05-20T01:02:51.957Z,101790.0
2023-05-20T01:04:51.768Z,101780.0
2023-05-20T01:06:51.376Z,101780.0
2023-05-20T01:08:51.049Z,101780.0
2023-05-20T01:10:57.487Z,101780.0
2023-05-20T01:14:55.592Z,101780.0
2023-05-20T01:18:54.154Z,101780.0
2023-05-20T01:22:53.031Z,101780.0
2023-05-20T01:26:49.389Z,101790.0
2023-05-20T01:28:50.074Z,101780.0
2023-05-20T01:30:54.029Z,101780.0
2023-05-20T01:32:51.685Z,101780.0
2023-05-20T01:34:50.159Z,101790.0
2023-05-20T01:36:47.879Z,101780.0
2023-05-20T01:38:48.360Z,101780.0
2023-05-20T01:40:47.953Z,101780.0
2023-05-20T01:42:51.852Z,101770.0
2023-05-20T01:44:46.675Z,101770.0
2023-05-20T01:46:48.706Z,101770.0
2023-05-20T01:48:46.008Z,101770.0
2023-05-20T01:50:45.817Z,101770.0
2023-05-20T01:54:49.968Z,101770.0
2023-05-20T01:56:45.632Z,101770.0
2023-05-20T01:58:44.908Z,101760.0
2023-05-20T02:00:45.102Z,101760.0
2023-05-20T02:02:44.694Z,101770.0
2023-05-20T02:04:47.015Z,101760.0
2023-05-20T02:08:43.613Z,101760.0
2023-05-20T02:10:43.322Z,101760.0
2023-05-20T02:12:43.242Z,101760.0
2023-05-20T02:14:43.934Z,101760.0
2023-05-20T02:16:42.793Z,101760.0
2023-05-20T02:18:42.990Z,101760.0
2023-05-20T02:20:42.129Z,101750.0
2023-05-20T02:22:41.832Z,101760.0
2023-05-20T02:24:42.369Z,101760.0
2023-05-20T02:26:43.638Z,101760.0
2023-05-20T02:28:45.553Z,101760.0
2023-05-20T02:30:40.885Z,101750.0
2023-05-20T02:32:41.408Z,101760.0
2023-05-20T02:36:40.438Z,101760.0
2023-05-20T02:38:40.467Z,101750.0
2023-05-20T02:40:43.422Z,101760.0
2023-05-20T02:42:40.193Z,101750.0
2023-05-20T02:44:39.857Z,101750.0
2023-05-20T02:48:38.621Z,101740.0
2023-05-20T02:50:38.928Z,101750.0
2023-05-20T02:52:38.873Z,101750.0
2023-05-20T02:54:37.739Z,101750.0
2023-05-20T02:56:37.694Z,101750.0
2023-05-20T02:58:37.545Z,101750.0
2023-05-20T03:00:39.641Z,101750.0
2023-05-20T03:02:36.839Z,101750.0
2023-05-20T03:06:37.112Z,101750.0
2023-05-20T03:08:38.598Z,101750.0
2023-05-20T03:10:36.182Z,101750.0
2023-05-20T03:14:35.220Z,101740.0
2023-05-20T03:16:35.008Z,101750.0
2023-05-20T03:18:34.685Z,101750.0
2023-05-20T03:20:35.882Z,101750.0
2023-05-20T03:24:34.697Z,101750.0
2023-05-20T03:26:36.576Z,101750.0
2023-05-20T03:28:35.073Z,101750.0
2023-05-20T03:30:33.064Z,101750.0
2023-05-20T03:32:32.877Z,101740.0
2023-05-20T03:36:32.290Z,101750.0
2023-05-20T03:38:32.200Z,101750.0
2023-05-20T03:40:31.872Z,101750.0
2023-05-20T03:44:31.342Z,101750.0
2023-05-20T03:46:33.189Z,101740.0
2023-05-20T03:48:30.778Z,101740.0
2023-05-20T03:50:30.444Z,101740.0
2023-05-20T03:52:30.142Z,101730.0
2023-05-20T03:54:30.561Z,101740.0
2023-05-20T03:56:29.549Z,101740.0
2023-05-20T03:58:30.242Z,101750.0
2023-05-20T04:02:28.997Z,101740.0
2023-05-20T04:04:28.915Z,101750.0
2023-05-20T04:08:27.968Z,101750.0
2023-05-20T04:10:27.625Z,101740.0
2023-05-20T04:12:29.594Z,101750.0
2023-05-20T04:14:27.164Z,101750.0
2023-05-20T04:16:29.061Z,101750.0
2023-05-20T04:20:26.399Z,101750.0
2023-05-20T04:22:26.537Z,101740.0
2023-05-20T04:24:26.808Z,101750.0
2023-05-20T04:26:25.765Z,101750.0
2023-05-20T04:28:27.084Z,101750.0
2023-05-20T04:30:25.169Z,101750.0
2023-05-20T04:32:25.828Z,101740.0
2023-05-20T04:34:25.664Z,101750.0
2023-05-20T04:36:27.538Z,101740.0
2023-05-20T04:38:29.488Z,101740.0
2023-05-20T04:40:23.615Z,101740.0
2023-05-20T04:42:23.487Z,101740.0
2023-05-20T04:44:23.736Z,101740.0
2023-05-20T04:46:23.325Z,101740.0
2023-05-20T04:48:23.050Z,101740.0
2023-05-20T04:50:22.621Z,101740.0
2023-05-20T04:54:21.890Z,101740.0
2023-05-20T04:56:21.600Z,101740.0
2023-05-20T04:58:23.264Z,101740.0
2023-05-20T05:00:21.078Z,101730.0
2023-05-20T05:02:20.832Z,101730.0
2023-05-20T05:04:20.633Z,101730.0
2023-05-20T05:06:20.351Z,101730.0
2023-05-20T05:08:20.079Z,101730.0
2023-05-20T05:10:20.849Z,101720.0
2023-05-20T05:12:19.838Z,101720.0
2023-05-20T05:14:19.473Z,101720.0
2023-05-20T05:18:18.845Z,101720.0
2023-05-20T05:20:18.896Z,101720.0
2023-05-20T05:24:18.153Z,101720.0
2023-05-20T05:26:18.031Z,101720.0
2023-05-20T05:28:17.699Z,101730.0
2023-05-20T05:30:17.728Z,101720.0
2023-05-20T05:32:17.333Z,101730.0
2023-05-20T05:34:16.909Z,101730.0
2023-05-20T05:36:16.782Z,101730.0
2023-05-20T05:40:16.467Z,101720.0
2023-05-20T05:42:16.140Z,101720.0
2023-05-20T05:44:15.923Z,101720.0
2023-05-20T05:46:15.569Z,101720.0
2023-05-20T05:48:15.244Z,101720.0
2023-05-20T05:50:15.146Z,101720.0
2023-05-20T05:52:14.778Z,101720.0
2023-05-20T05:56:14.376Z,101720.0
2023-05-20T05:58:14.078Z,101720.0
2023-05-20T06:00:14.595Z,101710.0
2023-05-20T06:02:14.085Z,101720.0
2023-05-20T06:04:13.874Z,101720.0
2023-05-20T06:06:13.197Z,101730.0
2023-05-20T06:08:13.293Z,101720.0
2023-05-20T06:10:12.915Z,101720.0
2023-05-20T06:12:14.018Z,101720.0
2023-05-20T06:14:12.262Z,101720.0
2023-05-20T06:16:12.190Z,101720.0
2023-05-20T06:18:11.829Z,101710.0
2023-05-20T06:20:11.999Z,101710.0
2023-05-20T06:22:11.344Z,101710.0
2023-05-20T06:24:11.106Z,101710.0
2023-05-20T06:28:11.625Z,101690.0
2023-05-20T06:30:11.223Z,101700.0
2023-05-20T06:32:10.264Z,101700.0
2023-05-20T06:34:09.981Z,101690.0
2023-05-20T06:38:10.164Z,101690.0
2023-05-20T06:40:11.457Z,101690.0
2023-05-20T06:42:09.268Z,101690.0
2023-05-20T06:44:09.026Z,101690.0
2023-05-20T06:46:08.948Z,101690.0
2023-05-20T06:48:08.936Z,101690.0
2023-05-20T06:50:09.084Z,101690.0
2023-05-20T06:52:08.286Z,101690.0
2023-05-20T06:54:08.350Z,101680.0
2023-05-20T06:56:07.789Z,101680.0
2023-05-20T06:58:07.490Z,101670.0
2023-05-20T07:00:08.277Z,101680.0
2023-05-20T07:02:07.137Z,101670.0
2023-05-20T07:08:07.190Z,101670.0
2023-05-20T07:10:07.253Z,101670.0
2023-05-20T07:12:06.799Z,101670.0
2023-05-20T07:14:07.595Z,101670.0
2023-05-20T07:16:05.877Z,101660.0
2023-05-20T07:18:05.613Z,101660.0
2023-05-20T07:20:06.180Z,101660.0
2023-05-20T07:22:05.263Z,101650.0
2023-05-20T07:24:05.326Z,101650.0
2023-05-20T07:28:04.603Z,101650.0
2023-05-20T07:30:05.009Z,101650.0
2023-05-20T07:32:05.180Z,101640.0
2023-05-20T07:34:04.198Z,101640.0
2023-05-20T07:36:04.889Z,101640.0
2023-05-20T07:38:03.693Z,101640.0
2023-05-20T07:40:04.552Z,101640.0
2023-05-20T07:42:03.517Z,101630.0
2023-05-20T07:44:04.574Z,101630.0
2023-05-20T07:46:03.655Z,101640.0
2023-05-20T07:48:03.338Z,101640.0
2023-05-20T07:50:02.704Z,101630.0
2023-05-20T07:52:03.231Z,101620.0
2023-05-20T07:54:02.968Z,101620.0
2023-05-20T07:56:02.321Z,101620.0
2023-05-20T07:58:02.147Z,101620.0
2023-05-20T08:00:03.036Z,101610.0
2023-05-20T08:02:01.720Z,101610.0
2023-05-20T08:06:01.887Z,101610.0
2023-05-20T08:08:01.138Z,101610.0
2023-05-20T08:10:01.003Z,101600.0
2023-05-20T08:12:01.517Z,101600.0
2023-05-20T08:14:01.347Z,101600.0
2023-05-20T08:16:02.878Z,101600.0
2023-05-20T08:18:00.507Z,101600.0
2023-05-20T08:20:00.730Z,101600.0
2023-05-20T08:24:00.302Z,101590.0
2023-05-20T08:26:01.399Z,101590.0
2023-05-20T08:28:02.834Z,101590.0
2023-05-20T08:30:01.008Z,101580.0
2023-05-20T08:31:59.368Z,101580.0
2023-05-20T08:33:59.544Z,101580.0
2023-05-20T08:35:59.749Z,101590.0
2023-05-20T08:38:00.410Z,101580.0
2023-05-20T08:39:58.812Z,101570.0
2023-05-20T08:41:59.220Z,101580.0
2023-05-20T08:44:00.142Z,101580.0
2023-05-20T08:48:00.023Z,101580.0
2023-05-20T08:49:58.084Z,101570.0
2023-05-20T08:57:57.672Z,101570.0
2023-05-20T09:01:57.364Z,101580.0
2023-05-20T09:03:57.186Z,101570.0
2023-05-20T09:06:03.098Z,101570.0
2023-05-20T09:08:05.227Z,101560.0
2023-05-20T09:11:56.650Z,101580.0
2023-05-20T09:13:56.654Z,101550.0
2023-05-20T09:15:58.914Z,101560.0
2023-05-20T09:18:00.229Z,101560.0
2023-05-20T09:21:56.253Z,101560.0
2023-05-20T09:25:55.764Z,101560.0
2023-05-20T09:27:55.834Z,101550.0
2023-05-20T09:29:55.848Z,101550.0
2023-05-20T09:31:55.873Z,101550.0
2023-05-20T09:33:55.664Z,101550.0
2023-05-20T09:36:02.295Z,101550.0
2023-05-20T09:37:56.439Z,101540.0
2023-05-20T09:40:00.324Z,101540.0
2023-05-20T09:42:02.510Z,101540.0
2023-05-20T09:45:55.876Z,101530.0
2023-05-20T09:47:55.860Z,101540.0
2023-05-20T09:49:55.601Z,101530.0
2023-05-20T09:53:54.145Z,101520.0
2023-05-20T09:55:54.908Z,101510.0
2023-05-20T09:57:55.153Z,101520.0
2023-05-20T10:01:53.865Z,101510.0
2023-05-20T10:06:09.599Z,101510.0
2023-05-20T10:08:13.130Z,101510.0
2023-05-20T10:10:02.331Z,101520.0
2023-05-20T10:12:02.465Z,101510.0
2023-05-20T10:14:04.452Z,101510.0
2023-05-20T10:16:07.714Z,101500.0
2023-05-20T10:18:05.082Z,101510.0
2023-05-20T10:19:57.588Z,101500.0
2023-05-20T10:21:57.166Z,101500.0
2023-05-20T10:23:52.597Z,101490.0
2023-05-20T10:25:53.539Z,101500.0
2023-05-20T10:28:03.974Z,101500.0
2023-05-20T10:29:54.070Z,101490.0
2023-05-20T10:31:52.266Z,101490.0
2023-05-20T10:33:53.080Z,101480.0
2023-05-20T10:35:52.873Z,101500.0
2023-05-20T10:37:52.991Z,101490.0
2023-05-20T10:39:52.186Z,101490.0
2023-05-20T10:41:51.667Z,101490.0
2023-05-20T10:45:54.545Z,101470.0
2023-05-20T10:49:51.496Z,101480.0
2023-05-20T10:51:51.696Z,101480.0
2023-05-20T10:53:53.472Z,101480.0
2023-05-20T10:55:53.765Z,101480.0
2023-05-20T10:59:51.718Z,101480.0
2023-05-20T11:01:50.946Z,101490.0
2023-05-20T11:03:53.301Z,101480.0
2023-05-20T11:05:50.886Z,101480.0
2023-05-20T11:07:59.209Z,101470.0
2023-05-20T11:09:50.582Z,101470.0
2023-05-20T11:11:52.696Z,101460.0
2023-05-20T11:13:51.132Z,101470.0
2023-05-20T11:15:50.429Z,101470.0
2023-05-20T11:17:53.319Z,101460.0
2023-05-20T11:19:50.360Z,101460.0
2023-05-20T11:21:50.466Z,101470.0
2023-05-20T11:23:51.312Z,101460.0
2023-05-20T11:25:50.869Z,101470.0
2023-05-20T11:27:49.943Z,101460.0
2023-05-20T11:29:49.920Z,101460.0
2023-05-20T11:31:50.176Z,101470.0
2023-05-20T11:33:51.128Z,101470.0
2023-05-20T11:35:51.859Z,101470.0
2023-05-20T11:37:54.217Z,101470.0
2023-05-20T11:40:06.617Z,101470.0
2023-05-20T11:41:49.764Z,101460.0
2023-05-20T11:43:54.504Z,101460.0
2023-05-20T11:45:53.640Z,101450.0
2023-05-20T11:48:00.181Z,101450.0
2023-05-20T11:49:49.207Z,101450.0
2023-05-20T11:51:49.164Z,101450.0
2023-05-20T11:53:48.850Z,101450.0
2023-05-20T11:55:50.149Z,101440.0
2023-05-20T11:59:48.837Z,101440.0
2023-05-20T12:01:48.712Z,101430.0
2023-05-20T12:03:48.950Z,101440.0
2023-05-20T12:05:49.820Z,101430.0
2023-05-20T12:07:48.503Z,101420.0
2023-05-20T12:09:48.449Z,101420.0
2023-05-20T12:11:48.632Z,101410.0
2023-05-20T12:13:48.218Z,101410.0
2023-05-20T12:15:48.220Z,101400.0
2023-05-20T12:17:49.819Z,101400.0
2023-05-20T12:21:48.127Z,101400.0
2023-05-20T12:23:47.964Z,101400.0
2023-05-20T12:27:49.502Z,101390.0
2023-05-20T12:29:47.667Z,101390.0
2023-05-20T12:31:47.655Z,101390.0
2023-05-20T12:37:47.516Z,101390.0
2023-05-20T12:39:47.573Z,101410.0
2023-05-20T12:41:47.330Z,101410.0
2023-05-20T12:43:47.448Z,101400.0
2023-05-20T12:45:47.713Z,101400.0
2023-05-20T12:47:47.574Z,101400.0
2023-05-20T12:49:47.181Z,101390.0
2023-05-20T12:51:47.122Z,101390.0
2023-05-20T12:55:47.062Z,101380.0
2023-05-20T12:57:47.502Z,101390.0
2023-05-20T12:59:46.998Z,101390.0
2023-05-20T13:01:47.600Z,101390.0
2023-05-20T13:03:46.995Z,101400.0
2023-05-20T13:05:46.803Z,101380.0
2023-05-20T13:07:47.905Z,101380.0
2023-05-20T13:09:46.691Z,101380.0
2023-05-20T13:11:46.734Z,101380.0
2023-05-20T13:13:46.614Z,101380.0
2023-05-20T13:15:48.199Z,101380.0
2023-05-20T13:19:46.578Z,101380.0
2023-05-20T13:21:46.607Z,101380.0
2023-05-20T13:23:46.534Z,101380.0
2023-05-20T13:25:46.445Z,101380.0
2023-05-20T13:27:46.567Z,101370.0
2023-05-20T13:29:46.471Z,101370.0
2023-05-20T13:31:46.756Z,101380.0
2023-05-20T13:33:46.430Z,101370.0
2023-05-20T13:35:46.545Z,101370.0
2023-05-20T13:37:46.419Z,101370.0
2023-05-20T13:39:46.962Z,101370.0
2023-05-20T13:41:46.124Z,101370.0
2023-05-20T13:43:46.227Z,101380.0
2023-05-20T13:45:46.301Z,101370.0
2023-05-20T13:47:46.232Z,101360.0
2023-05-20T13:49:46.024Z,101360.0
2023-05-20T13:51:45.951Z,101360.0
2023-05-20T13:55:45.907Z,101360.0
2023-05-20T13:57:45.838Z,101360.0
2023-05-20T13:59:45.780Z,101360.0
2023-05-20T14:01:46.227Z,101360.0
2023-05-20T14:03:45.938Z,101350.0
2023-05-20T14:05:45.680Z,101350.0
2023-05-20T14:07:45.730Z,101330.0
2023-05-20T14:09:45.673Z,101340.0
2023-05-20T14:11:45.783Z,101340.0
2023-05-20T14:13:45.639Z,101340.0
2023-05-20T14:15:45.661Z,101340.0
2023-05-20T14:17:46.894Z,101330.0
2023-05-20T14:19:45.540Z,101330.0
2023-05-20T14:21:45.636Z,101330.0
2023-05-20T14:23:46.120Z,101330.0
2023-05-20T14:25:45.547Z,101330.0
2023-05-20T14:27:45.513Z,101330.0
2023-05-20T14:29:45.609Z,101330.0
2023-05-20T14:31:45.621Z,101340.0
2023-05-20T14:33:45.638Z,101330.0
2023-05-20T14:35:45.424Z,101330.0
2023-05-20T14:37:45.658Z,101330.0
2023-05-20T14:39:45.472Z,101320.0
2023-05-20T14:43:45.260Z,101310.0
2023-05-20T14:45:45.814Z,101310.0
2023-05-20T14:47:45.234Z,101320.0
2023-05-20T14:49:45.310Z,101320.0
2023-05-20T14:51:45.289Z,101310.0
2023-05-20T14:53:45.020Z,101310.0
2023-05-20T14:57:45.271Z,101320.0
2023-05-20T14:59:45.158Z,101310.0
2023-05-20T15:01:45.523Z,101320.0
2023-05-20T15:03:44.959Z,101310.0
2023-05-20T15:05:44.800Z,101310.0
2023-05-20T15:07:46.209Z,101310.0
2023-05-20T15:09:44.850Z,101310.0
2023-05-20T15:11:45.852Z,101300.0
2023-05-20T15:13:45.539Z,101300.0
2023-05-20T15:15:44.749Z,101300.0
2023-05-20T15:17:44.560Z,101300.0
2023-05-20T15:19:44.525Z,101300.0
2023-05-20T15:21:44.477Z,101300.0
2023-05-20T15:23:44.647Z,101300.0
2023-05-20T15:25:44.548Z,101310.0
2023-05-20T15:27:44.634Z,101300.0
2023-05-20T15:29:44.233Z,101290.0
2023-05-20T15:31:45.467Z,101290.0
2023-05-20T15:33:44.486Z,101290.0
2023-05-20T15:35:44.371Z,101290.0
2023-05-20T15:37:44.079Z,101290.0
2023-05-20T15:39:44.080Z,101290.0
2023-05-20T15:41:46.872Z,101300.0
2023-05-20T15:43:43.956Z,101300.0
2023-05-20T15:45:44.979Z,101300.0
2023-05-20T15:47:43.933Z,101300.0
2023-05-20T15:49:43.872Z,101300.0
2023-05-20T15:51:52.169Z,101300.0
2023-05-20T15:53:43.890Z,101290.0
2023-05-20T15:55:44.987Z,101290.0
2023-05-20T15:57:44.037Z,101290.0
2023-05-20T15:59:43.860Z,101300.0
2023-05-20T16:01:43.727Z,101300.0
2023-05-20T16:03:44.020Z,101300.0
2023-05-20T16:05:43.858Z,101300.0
2023-05-20T16:07:45.645Z,101300.0
2023-05-20T16:09:43.645Z,101300.0
2023-05-20T16:11:43.620Z,101290.0
2023-05-20T16:15:43.500Z,101300.0
2023-05-20T16:17:43.413Z,101290.0
2023-05-20T16:19:44.746Z,101300.0
2023-05-20T16:25:43.280Z,101310.0
2023-05-20T16:27:43.250Z,101320.0
2023-05-20T16:29:44.117Z,101310.0
2023-05-20T16:31:45.475Z,101310.0
2023-05-20T16:33:43.077Z,101310.0
2023-05-20T16:35:43.287Z,101310.0
2023-05-20T16:37:43.447Z,101310.0
2023-05-20T16:39:43.006Z,101300.0
2023-05-20T16:41:43.153Z,101310.0
2023-05-20T16:43:42.930Z,101310.0
2023-05-20T16:49:42.743Z,101310.0
2023-05-20T16:53:42.615Z,101300.0
2023-05-20T16:55:42.606Z,101300.0
2023-05-20T16:57:42.562Z,101300.0
2023-05-20T16:59:42.528Z,101310.0
2023-05-20T17:01:42.585Z,101300.0
2023-05-20T17:03:42.471Z,101310.0
2023-05-20T17:05:42.704Z,101310.0
2023-05-20T17:07:42.380Z,101310.0
2023-05-20T17:09:42.437Z,101310.0
2023-05-20T17:11:42.953Z,101300.0
2023-05-20T17:13:42.226Z,101310.0
2023-05-20T17:15:42.308Z,101310.0
2023-05-20T17:17:42.244Z,101310.0
2023-05-20T17:19:42.331Z,101320.0
2023-05-20T17:21:43.229Z,101310.0
2023-05-20T17:25:42.082Z,101310.0
2023-05-20T17:27:41.979Z,101310.0
2023-05-20T17:29:42.103Z,101310.0
2023-05-20T17:31:42.781Z,101310.0
2023-05-20T17:33:41.834Z,101310.0
2023-05-20T17:37:41.995Z,101310.0
2023-05-20T17:41:43.502Z,101320.0
2023-05-20T17:43:41.464Z,101310.0
2023-05-20T17:45:41.749Z,101310.0
2023-05-20T17:51:41.499Z,101310.0
2023-05-20T17:53:41.272Z,101310.0
2023-05-20T17:55:41.265Z,101310.0
2023-05-20T17:57:41.152Z,101300.0
2023-05-20T17:59:44.234Z,101310.0
2023-05-20T18:01:41.025Z,101310.0
2023-05-20T18:03:41.228Z,101310.0
2023-05-20T18:05:41.011Z,101310.0
2023-05-20T18:07:40.826Z,101310.0
2023-05-20T18:09:40.883Z,101310.0
2023-05-20T18:11:40.812Z,101320.0
2023-05-20T18:13:40.709Z,101320.0
2023-05-20T18:15:40.678Z,101310.0
2023-05-20T18:17:40.727Z,101320.0
2023-05-20T18:19:40.602Z,101320.0
2023-05-20T18:21:40.530Z,101310.0
2023-05-20T18:23:40.441Z,101320.0
2023-05-20T18:25:42.497Z,101320.0
2023-05-20T18:27:41.335Z,101320.0
2023-05-20T18:29:40.293Z,101320.0
2023-05-20T18:31:42.729Z,101320.0
2023-05-20T18:33:40.439Z,101320.0
2023-05-20T18:35:40.319Z,101330.0
2023-05-20T18:43:39.830Z,101330.0
2023-05-20T18:45:39.795Z,101330.0
2023-05-20T18:47:39.910Z,101330.0
2023-05-20T18:49:39.912Z,101340.0
2023-05-20T18:51:40.025Z,101340.0
2023-05-20T18:53:39.802Z,101340.0
2023-05-20T18:57:39.847Z,101340.0
2023-05-20T18:59:40.310Z,101340.0
2023-05-20T19:01:40.277Z,101350.0
2023-05-20T19:03:43.081Z,101350.0
2023-05-20T19:09:39.011Z,101350.0
2023-05-20T19:11:38.968Z,101350.0
2023-05-20T19:13:38.868Z,101340.0
2023-05-20T19:15:38.907Z,101350.0
2023-05-20T19:17:38.800Z,101350.0
2023-05-20T19:19:38.903Z,101350.0
2023-05-20T19:21:40.897Z,101360.0
2023-05-20T19:23:38.640Z,101360.0
2023-05-20T19:25:38.523Z,101350.0
2023-05-20T19:27:38.584Z,101360.0
2023-05-20T19:29:38.457Z,101360.0
2023-05-20T19:31:41.846Z,101360.0
2023-05-20T19:33:39.210Z,101360.0
2023-05-20T19:35:38.346Z,101360.0
2023-05-20T19:37:38.110Z,101360.0
2023-05-20T19:39:38.076Z,101360.0
2023-05-20T19:41:37.974Z,101360.0
2023-05-20T19:43:38.236Z,101360.0
2023-05-20T19:45:38.032Z,101360.0
2023-05-20T19:49:37.623Z,101350.0
2023-05-20T19:51:37.630Z,101360.0
2023-05-20T19:53:37.615Z,101370.0
2023-05-20T19:55:37.845Z,101370.0
2023-05-20T19:57:37.423Z,101370.0
2023-05-20T19:59:37.550Z,101360.0
2023-05-20T20:01:37.486Z,101370.0
2023-05-20T20:05:37.482Z,101360.0
2023-05-20T20:09:37.314Z,101360.0
2023-05-20T20:11:36.977Z,101360.0
2023-05-20T20:13:36.919Z,101360.0
2023-05-20T20:15:37.050Z,101360.0
2023-05-20T20:17:37.125Z,101360.0
2023-05-20T20:23:36.963Z,101360.0
2023-05-20T20:25:37.994Z,101370.0
2023-05-20T20:28:18.171Z,101360.0
2023-05-20T20:29:36.575Z,101360.0
2023-05-20T20:35:36.736Z,101360.0
2023-05-20T20:37:37.275Z,101370.0
2023-05-20T20:39:36.201Z,101360.0
2023-05-20T20:41:37.716Z,101370.0
2023-05-20T20:43:37.037Z,101360.0
2023-05-20T20:45:35.970Z,101370.0
2023-05-20T20:47:37.438Z,101360.0
2023-05-20T20:51:35.601Z,101360.0
2023-05-20T20:53:35.640Z,101360.0
2023-05-20T20:55:35.449Z,101360.0
2023-05-20T20:57:35.828Z,101360.0
2023-05-20T20:59:35.565Z,101360.0
2023-05-20T21:03:36.015Z,101370.0
2023-05-20T21:05:36.237Z,101370.0
2023-05-20T21:07:38.044Z,101370.0
2023-05-20T21:09:34.731Z,101370.0
2023-05-20T21:11:37.250Z,101370.0
2023-05-20T21:19:35.032Z,101370.0
2023-05-20T21:21:34.052Z,101370.0
2023-05-20T21:23:33.949Z,101370.0
2023-05-20T21:25:34.020Z,101380.0
2023-05-20T21:27:33.799Z,101370.0
2023-05-20T21:29:34.858Z,101370.0
2023-05-20T21:31:33.733Z,101370.0
2023-05-20T21:33:33.550Z,101370.0
2023-05-20T21:35:33.635Z,101370.0
2023-05-20T21:37:33.328Z,101380.0
2023-05-20T21:39:33.556Z,101380.0
2023-05-20T21:41:33.117Z,101380.0
2023-05-20T21:43:34.801Z,101370.0
2023-05-20T21:45:33.037Z,101370.0
2023-05-20T21:47:32.916Z,101370.0
2023-05-20T21:51:32.802Z,101370.0
2023-05-20T21:53:32.536Z,101370.0
2023-05-20T21:55:32.501Z,101380.0
2023-05-20T21:57:32.319Z,101380.0
2023-05-20T21:59:32.266Z,101370.0
2023-05-20T22:01:32.651Z,101370.0
2023-05-20T22:03:32.526Z,101370.0
2023-05-20T22:05:33.389Z,101370.0
2023-05-20T22:07:32.325Z,101370.0
2023-05-20T22:09:31.794Z,101360.0
2023-05-20T22:11:32.688Z,101360.0
2023-05-20T22:13:32.016Z,101360.0
2023-05-20T22:15:31.593Z,101360.0
2023-05-20T22:17:32.848Z,101360.0
2023-05-20T22:19:31.508Z,101360.0
2023-05-20T22:23:31.113Z,101360.0
2023-05-20T22:25:31.311Z,101360.0
2023-05-20T22:27:31.423Z,101360.0
2023-05-20T22:29:31.412Z,101360.0
2023-05-20T22:31:32.525Z,101360.0
2023-05-20T22:33:30.833Z,101360.0
2023-05-20T22:37:30.325Z,101370.0
2023-05-20T22:39:30.213Z,101360.0
2023-05-20T22:41:30.386Z,101360.0
2023-05-20T22:43:29.973Z,101360.0
2023-05-20T22:45:29.912Z,101360.0
2023-05-20T22:47:30.038Z,101360.0
2023-05-20T22:49:29.521Z,101350.0
2023-05-20T22:51:33.171Z,101340.0
2023-05-20T22:53:29.157Z,101340.0
2023-05-20T22:55:29.023Z,101330.0
2023-05-20T22:57:28.844Z,101330.0
2023-05-20T22:59:30.082Z,101330.0
2023-05-20T23:03:28.509Z,101330.0
2023-05-20T23:05:29.096Z,101330.0
2023-05-20T23:07:28.484Z,101320.0
2023-05-20T23:11:27.756Z,101330.0
2023-05-20T23:13:27.681Z,101320.0
2023-05-20T23:15:29.639Z,101330.0
2023-05-20T23:17:27.359Z,101320.0
2023-05-20T23:19:27.329Z,101320.0
2023-05-20T23:21:26.910Z,101320.0
2023-05-20T23:23:31.200Z,101320.0
2023-05-20T23:25:26.782Z,101320.0
2023-05-20T23:27:26.461Z,101310.0
2023-05-20T23:29:26.365Z,101320.0
2023-05-20T23:31:28.791Z,101320.0
2023-05-20T23:33:26.084Z,101320.0
2023-05-20T23:35:25.760Z,101320.0
2023-05-20T23:37:25.517Z,101320.0
2023-05-20T23:39:25.386Z,101310.0
2023-05-20T23:41:25.433Z,101310.0
2023-05-20T23:43:25.117Z,101310.0
2023-05-20T23:45:24.996Z,101300.0
2023-05-20T23:47:25.042Z,101310.0
2023-05-20T23:51:24.540Z,101300.0
2023-05-20T23:53:24.682Z,101300.0
2023-05-20T23:55:23.892Z,101300.0
2023-05-20T23:57:23.777Z,101300.0
2023-05-20T23:59:23.712Z,101300.0
